Time;durP1;ratioP1;P1;durP2;ratioP2;P2;SDS_P1;SDS_P2;PMS_P1;PMS_P2;Temp;Humidity;BMP_temperature;BMP_pressure;BME280_temperature;BME280_humidity;BME280_pressure;Samples;Min_cycle;Max_cycle;Signal;HPM_P1;HPM_P2
2022/08/29 00:01:32;;;;;;;29.27;14.32;;;19.60;99.90;;;;;;5077553;28;20025;-58
2022/08/29 00:03:58;;;;;;;36.33;15.80;;;19.60;99.90;;;;;;5077421;28;20374;-58
2022/08/29 00:06:24;;;;;;;30.15;13.93;;;19.60;99.90;;;;;;5077385;28;20045;-58
2022/08/29 00:08:50;;;;;;;25.95;13.75;;;19.60;99.90;;;;;;5077732;28;20028;-58
2022/08/29 00:11:16;;;;;;;26.25;13.98;;;19.50;99.90;;;;;;5077416;28;20029;-58
2022/08/29 00:13:43;;;;;;;28.95;15.43;;;19.50;99.90;;;;;;5077256;28;20032;-58
2022/08/29 00:16:09;;;;;;;33.55;14.57;;;19.50;99.90;;;;;;5077647;28;20031;-57
2022/08/29 00:18:35;;;;;;;29.52;14.63;;;19.50;99.90;;;;;;5077168;28;20016;-58
2022/08/29 00:21:02;;;;;;;29.77;15.35;;;19.50;99.90;;;;;;5077257;28;20084;-58
2022/08/29 00:23:29;;;;;;;27.90;13.70;;;19.40;99.90;;;;;;5077266;28;20112;-57
2022/08/29 00:25:55;;;;;;;28.55;14.93;;;19.40;99.90;;;;;;5077204;28;20028;-57
2022/08/29 00:28:22;;;;;;;25.42;14.65;;;19.30;99.90;;;;;;5077023;28;20040;-57
2022/08/29 00:30:48;;;;;;;36.95;17.05;;;19.40;99.90;;;;;;5077132;28;20017;-57
2022/08/29 00:33:14;;;;;;;32.75;17.23;;;19.40;99.90;;;;;;5077081;28;20044;-57
2022/08/29 00:35:42;;;;;;;32.35;17.98;;;19.30;99.90;;;;;;5077038;28;20100;-58
2022/08/29 00:38:11;;;;;;;37.28;16.90;;;19.30;99.90;;;;;;5077211;28;20024;-58
2022/08/29 00:40:43;;;;;;;33.75;15.60;;;19.30;99.90;;;;;;5076694;28;20025;-57
2022/08/29 00:43:09;;;;;;;30.85;15.35;;;19.20;99.90;;;;;;5076983;28;20055;-58
2022/08/29 00:45:41;;;;;;;33.40;15.65;;;19.20;99.90;;;;;;5076765;28;20432;-57
2022/08/29 00:48:11;;;;;;;33.03;16.83;;;19.20;99.90;;;;;;5076658;28;20035;-57
2022/08/29 00:50:39;;;;;;;;;;;19.10;99.90;;;;;;5077216;28;20039;-57
2022/08/29 00:53:10;;;;;;;27.73;15.20;;;19.20;99.90;;;;;;5076747;28;19969;-57
2022/08/29 00:55:38;;;;;;;30.08;16.05;;;19.20;99.90;;;;;;5076701;28;20044;-57
2022/08/29 00:58:08;;;;;;;31.63;16.30;;;19.20;99.90;;;;;;5076496;28;20039;-58
2022/08/29 01:00:36;;;;;;;34.50;16.48;;;19.20;99.90;;;;;;5076497;28;20025;-58
2022/08/29 01:03:06;;;;;;;26.52;15.35;;;19.20;99.90;;;;;;5076528;28;20029;-58
2022/08/29 01:05:33;;;;;;;23.40;14.43;;;19.20;99.90;;;;;;5076593;28;20031;-58
2022/08/29 01:07:59;;;;;;;30.30;15.50;;;19.10;99.90;;;;;;5076200;28;20028;-57
2022/08/29 01:13:11;;;;;;;23.80;15.45;;;19.10;99.90;;;;;;5076584;28;20033;-58
2022/08/29 01:15:40;;;;;;;24.63;14.68;;;19.00;99.90;;;;;;5076410;28;20031;-58
2022/08/29 01:18:08;;;;;;;21.10;13.70;;;19.10;99.90;;;;;;5076045;28;20120;-57
2022/08/29 01:20:48;;;;;;;23.83;14.55;;;19.00;99.90;;;;;;5076100;28;20032;-57
2022/08/29 01:23:47;;;;;;;30.95;14.00;;;19.00;99.90;;;;;;5075929;28;20052;-57
2022/08/29 01:26:13;;;;;;;21.10;13.18;;;18.90;99.90;;;;;;5075706;28;20036;-57
2022/08/29 01:28:42;;;;;;;25.58;13.98;;;18.90;99.90;;;;;;5076070;28;20437;-58
2022/08/29 01:31:16;;;;;;;26.73;15.33;;;18.80;99.90;;;;;;5076004;28;20527;-58
2022/08/29 01:33:50;;;;;;;27.85;15.25;;;18.80;99.90;;;;;;5075966;28;20452;-58
2022/08/29 01:36:33;;;;;;;23.70;14.27;;;18.70;99.90;;;;;;5075844;28;20035;-57
2022/08/29 01:38:59;;;;;;;26.50;14.57;;;18.80;99.90;;;;;;5075846;28;20531;-57
2022/08/29 01:41:25;;;;;;;22.67;12.90;;;18.70;99.90;;;;;;5075830;28;20024;-57
2022/08/29 01:43:54;;;;;;;25.52;14.38;;;18.70;99.90;;;;;;5075822;28;20033;-57
2022/08/29 01:46:29;;;;;;;26.50;14.40;;;18.70;99.90;;;;;;5075614;28;20032;-57
2022/08/29 01:48:55;;;;;;;21.60;14.35;;;18.70;99.90;;;;;;5075560;28;20043;-58
2022/08/29 01:51:23;;;;;;;24.35;13.43;;;18.60;99.90;;;;;;5075738;28;20040;-57
2022/08/29 01:53:50;;;;;;;26.35;14.30;;;18.60;99.90;;;;;;5075476;28;20546;-58
2022/08/29 01:56:20;;;;;;;25.45;14.20;;;18.60;99.90;;;;;;5075550;28;20036;-57
2022/08/29 01:58:49;;;;;;;23.08;14.77;;;18.70;99.90;;;;;;5075318;28;20482;-57
2022/08/29 02:01:17;;;;;;;27.85;14.35;;;18.70;99.90;;;;;;5075254;28;20036;-58
2022/08/29 02:03:44;;;;;;;24.10;13.13;;;18.70;99.90;;;;;;5075441;28;20032;-58
2022/08/29 02:06:10;;;;;;;23.63;14.25;;;18.70;99.90;;;;;;5075128;28;20027;-58
2022/08/29 02:08:38;;;;;;;20.02;12.73;;;18.70;99.90;;;;;;5074663;28;20035;-57
2022/08/29 02:11:08;;;;;;;23.50;13.20;;;18.70;99.90;;;;;;5075055;28;20113;-57
2022/08/29 02:13:44;;;;;;;22.58;12.20;;;18.60;99.90;;;;;;5074965;28;20024;-58
2022/08/29 02:16:12;;;;;;;20.98;10.88;;;18.70;99.90;;;;;;5074900;28;20083;-57
2022/08/29 02:18:39;;;;;;;20.20;9.95;;;18.60;99.90;;;;;;5074984;28;20025;-57
2022/08/29 02:21:05;;;;;;;20.02;11.77;;;18.60;99.90;;;;;;5073954;28;20425;-57
2022/08/29 02:23:34;;;;;;;19.83;11.07;;;18.50;99.90;;;;;;5074978;28;20028;-57
2022/08/29 02:26:00;;;;;;;17.50;11.52;;;18.50;99.90;;;;;;5074891;28;20039;-57
2022/08/29 02:28:26;;;;;;;18.48;12.15;;;18.40;99.90;;;;;;5074650;28;20024;-57
2022/08/29 02:30:53;;;;;;;18.48;12.18;;;18.30;99.90;;;;;;5074992;28;20024;-57
2022/08/29 02:33:20;;;;;;;21.45;11.73;;;18.40;99.90;;;;;;5074633;28;20035;-57
2022/08/29 02:35:47;;;;;;;26.40;12.18;;;18.40;99.90;;;;;;5074705;28;20052;-57
2022/08/29 02:38:13;;;;;;;23.15;12.88;;;18.30;99.90;;;;;;5074648;28;20078;-57
2022/08/29 02:40:40;;;;;;;20.85;11.80;;;18.30;99.90;;;;;;5074647;28;20052;-57
2022/08/29 02:43:07;;;;;;;23.73;12.75;;;18.30;99.90;;;;;;5074665;28;20046;-57
2022/08/29 02:45:36;;;;;;;22.42;12.25;;;18.20;99.90;;;;;;5074710;28;20103;-57
2022/08/29 02:48:03;;;;;;;18.95;12.88;;;18.20;99.90;;;;;;5074385;28;20028;-58
2022/08/29 02:50:29;;;;;;;32.47;12.10;;;18.10;99.90;;;;;;5074563;28;20032;-57
2022/08/29 02:52:55;;;;;;;28.65;13.43;;;18.10;99.90;;;;;;5074394;28;20031;-57
2022/08/29 02:55:23;;;;;;;28.98;13.60;;;18.10;99.90;;;;;;5074643;28;20111;-57
2022/08/29 02:57:50;;;;;;;29.67;12.98;;;18.00;99.90;;;;;;5074277;28;20052;-57
2022/08/29 03:00:22;;;;;;;24.48;12.57;;;18.00;99.90;;;;;;5074492;28;20036;-57
2022/08/29 03:02:48;;;;;;;26.30;12.80;;;18.00;99.90;;;;;;5074673;28;20028;-57
2022/08/29 03:05:17;;;;;;;22.92;13.55;;;18.00;99.90;;;;;;5074419;28;20107;-57
2022/08/29 03:07:44;;;;;;;25.25;13.18;;;18.00;99.90;;;;;;5074465;28;20036;-57
2022/08/29 03:10:10;;;;;;;22.88;12.77;;;17.90;99.90;;;;;;5074429;28;20054;-57
2022/08/29 03:12:36;;;;;;;17.60;12.65;;;17.90;99.90;;;;;;5074440;28;20036;-57
2022/08/29 03:15:04;;;;;;;26.60;13.27;;;17.90;99.90;;;;;;5074486;28;20036;-57
2022/08/29 03:17:30;;;;;;;24.20;12.60;;;17.90;99.90;;;;;;5074453;28;20024;-57
2022/08/29 03:19:57;;;;;;;19.48;11.40;;;17.90;99.90;;;;;;5074222;28;20027;-57
2022/08/29 03:22:24;;;;;;;20.23;12.55;;;17.90;99.90;;;;;;5078356;28;20021;-57
2022/08/29 03:24:50;;;;;;;22.85;12.70;;;18.00;99.90;;;;;;5078401;28;20497;-57
2022/08/29 03:27:15;;;;;;;18.75;10.75;;;17.90;99.90;;;;;;5078147;28;20028;-57
2022/08/29 03:29:41;;;;;;;22.27;12.13;;;18.00;99.90;;;;;;5060362;28;20068;-57
2022/08/29 03:32:07;;;;;;;22.60;11.48;;;18.00;99.90;;;;;;5078220;28;20082;-57
2022/08/29 03:34:33;;;;;;;17.90;11.10;;;17.80;99.90;;;;;;5078159;28;20056;-57
2022/08/29 03:36:59;;;;;;;22.85;10.88;;;17.80;99.90;;;;;;5078041;28;20067;-57
2022/08/29 03:39:25;;;;;;;20.67;11.45;;;17.70;99.90;;;;;;5078152;28;20027;-57
2022/08/29 03:41:52;;;;;;;25.67;11.75;;;17.70;99.90;;;;;;5078010;28;20028;-57
2022/08/29 03:44:18;;;;;;;23.15;12.10;;;17.70;99.90;;;;;;5078009;28;20119;-57
2022/08/29 03:46:44;;;;;;;26.50;12.13;;;17.80;99.90;;;;;;5077819;28;20064;-57
2022/08/29 03:49:10;;;;;;;26.77;12.60;;;17.70;99.90;;;;;;5077790;28;20067;-57
2022/08/29 03:51:37;;;;;;;24.88;12.25;;;17.60;99.90;;;;;;5077946;28;20043;-57
2022/08/29 03:54:04;;;;;;;24.50;12.80;;;17.60;99.90;;;;;;5077739;28;20032;-57
2022/08/29 03:56:31;;;;;;;20.50;12.18;;;17.60;99.90;;;;;;5077931;28;20391;-57
2022/08/29 03:58:58;;;;;;;26.60;13.05;;;17.60;99.90;;;;;;5077546;28;20222;-57
2022/08/29 04:01:27;;;;;;;24.35;13.05;;;17.50;99.90;;;;;;5077455;28;20040;-57
2022/08/29 04:03:55;;;;;;;23.35;12.25;;;17.60;99.90;;;;;;5077583;28;20024;-57
2022/08/29 04:06:23;;;;;;;23.58;12.15;;;17.60;99.90;;;;;;5077536;28;20086;-57
2022/08/29 04:08:50;;;;;;;19.90;12.70;;;17.50;99.90;;;;;;5077584;28;20103;-57
2022/08/29 04:11:18;;;;;;;21.45;12.38;;;17.50;99.90;;;;;;5077466;28;20032;-57
2022/08/29 04:13:44;;;;;;;24.20;12.45;;;17.50;99.90;;;;;;5077657;28;20385;-57
2022/08/29 04:16:12;;;;;;;22.50;12.10;;;17.50;99.90;;;;;;5077509;28;20032;-57
2022/08/29 04:18:38;;;;;;;23.95;12.57;;;17.50;99.90;;;;;;5077280;28;20028;-57
2022/08/29 04:21:05;;;;;;;20.10;12.90;;;17.40;99.90;;;;;;5077187;28;20041;-57
2022/08/29 04:23:33;;;;;;;32.30;14.80;;;17.40;99.90;;;;;;5077333;28;20098;-57
2022/08/29 04:25:59;;;;;;;27.17;16.02;;;17.40;99.90;;;;;;5077174;28;20025;-57
2022/08/29 04:28:25;;;;;;;27.33;14.68;;;17.40;99.90;;;;;;5076953;28;20036;-57
2022/08/29 04:30:52;;;;;;;30.23;14.98;;;17.50;99.90;;;;;;5076756;28;20022;-57
2022/08/29 04:33:24;;;;;;;34.35;15.15;;;17.40;99.90;;;;;;5076952;28;20056;-57
2022/08/29 04:35:51;;;;;;;35.78;15.85;;;17.40;99.90;;;;;;5076921;28;20029;-57
2022/08/29 04:38:18;;;;;;;26.20;14.38;;;17.40;99.90;;;;;;5076796;28;20090;-57
2022/08/29 04:40:46;;;;;;;24.90;15.18;;;17.50;99.90;;;;;;5076945;28;20025;-57
2022/08/29 04:43:12;;;;;;;23.70;13.30;;;17.50;99.90;;;;;;5076570;28;20466;-57
2022/08/29 04:45:41;;;;;;;24.35;13.60;;;17.50;99.90;;;;;;5076920;28;20063;-57
2022/08/29 04:48:08;;;;;;;26.00;13.30;;;17.60;99.90;;;;;;5076790;28;20462;-58
2022/08/29 04:50:34;;;;;;;21.67;13.80;;;17.70;99.90;;;;;;5076623;28;20036;-57
2022/08/29 04:53:01;;;;;;;21.20;13.07;;;17.60;99.90;;;;;;5076632;28;20094;-57
2022/08/29 04:55:28;;;;;;;21.20;13.02;;;17.60;99.90;;;;;;5076622;28;20108;-57
2022/08/29 04:57:55;;;;;;;29.45;14.98;;;17.70;99.90;;;;;;5076215;28;20029;-57
2022/08/29 05:00:25;;;;;;;32.92;16.75;;;17.70;99.90;;;;;;5076737;28;20036;-57
2022/08/29 05:02:51;;;;;;;33.83;15.35;;;17.90;99.90;;;;;;5077192;28;20031;-57
2022/08/29 05:05:17;;;;;;;31.70;15.57;;;17.90;99.90;;;;;;5077050;28;20025;-57
2022/08/29 05:07:45;;;;;;;33.85;14.32;;;18.20;99.90;;;;;;5077043;28;20040;-57
2022/08/29 05:10:18;;;;;;;21.52;13.75;;;18.20;99.90;;;;;;5076478;28;20024;-57
2022/08/29 05:12:44;;;;;;;24.90;13.75;;;18.20;99.90;;;;;;5067355;28;20036;-57
2022/08/29 05:15:11;;;;;;;23.42;13.68;;;18.30;99.90;;;;;;5068972;28;20032;-57
2022/08/29 05:17:37;;;;;;;32.13;15.13;;;18.30;99.90;;;;;;5065423;28;21517;-57
2022/08/29 05:20:05;;;;;;;23.60;12.40;;;18.40;99.90;;;;;;5075641;28;20505;-57
2022/08/29 05:22:32;;;;;;;27.35;13.10;;;18.50;99.90;;;;;;5076094;28;20096;-57
2022/08/29 05:24:58;;;;;;;48.10;16.92;;;18.50;99.90;;;;;;5075157;28;20074;-57
2022/08/29 05:27:24;;;;;;;94.18;20.92;;;18.70;99.90;;;;;;5075660;28;20078;-57
2022/08/29 05:29:50;;;;;;;102.20;21.45;;;18.80;99.90;;;;;;5069010;28;20025;-57
2022/08/29 05:32:18;;;;;;;73.50;20.48;;;18.90;99.90;;;;;;5063684;28;20039;-57
2022/08/29 05:34:45;;;;;;;79.35;19.27;;;18.90;99.90;;;;;;5075815;28;20112;-57
2022/08/29 05:37:18;;;;;;;74.22;19.25;;;19.00;99.90;;;;;;5073680;28;20509;-57
2022/08/29 05:39:44;;;;;;;60.33;18.15;;;19.20;99.90;;;;;;5067214;28;20493;-57
2022/08/29 05:42:11;;;;;;;59.70;17.73;;;19.40;99.90;;;;;;5073758;28;20016;-57
2022/08/29 05:44:38;;;;;;;52.38;17.20;;;19.50;99.90;;;;;;5072647;28;20025;-57
2022/08/29 05:47:06;;;;;;;52.45;17.77;;;19.40;99.90;;;;;;5064524;28;20028;-57
2022/08/29 05:49:38;;;;;;;51.20;15.95;;;19.50;99.90;;;;;;5058933;28;20118;-57
2022/08/29 05:52:05;;;;;;;50.15;17.45;;;19.60;99.90;;;;;;5072071;28;20036;-57
2022/08/29 05:54:33;;;;;;;70.03;17.67;;;19.60;99.90;;;;;;5075259;28;20032;-57
2022/08/29 05:56:59;;;;;;;46.72;16.73;;;19.70;99.90;;;;;;5060453;28;20021;-57
2022/08/29 05:59:29;;;;;;;46.15;16.15;;;19.80;99.90;;;;;;5054327;28;20032;-57
2022/08/29 06:01:58;;;;;;;39.70;16.10;;;19.90;99.90;;;;;;5068512;28;20062;-57
2022/08/29 06:04:24;;;;;;;33.30;14.85;;;20.00;99.90;;;;;;5072737;28;20101;-57
2022/08/29 06:06:50;;;;;;;36.67;16.95;;;20.10;99.90;;;;;;5064602;28;20065;-57
2022/08/29 06:09:16;;;;;;;34.83;15.93;;;20.10;99.90;;;;;;5063180;28;20524;-57
2022/08/29 06:11:46;;;;;;;75.72;20.33;;;20.20;99.90;;;;;;5065748;28;20047;-57
2022/08/29 06:14:13;;;;;;;80.17;23.03;;;20.30;99.90;;;;;;5066582;28;20505;-57
2022/08/29 06:16:39;;;;;;;80.50;20.50;;;20.40;99.90;;;;;;5064690;28;20025;-57
2022/08/29 06:19:05;;;;;;;81.78;21.15;;;20.60;99.90;;;;;;5065497;28;20020;-57
2022/08/29 06:21:31;;;;;;;60.50;20.50;;;20.70;99.90;;;;;;5059124;28;20025;-57
2022/08/29 06:23:57;;;;;;;51.60;18.65;;;20.80;99.90;;;;;;5062249;28;20421;-57
2022/08/29 06:26:26;;;;;;;45.97;16.55;;;20.80;99.90;;;;;;5064218;28;20470;-57
2022/08/29 06:28:52;;;;;;;36.25;16.23;;;21.00;99.90;;;;;;5074215;28;20024;-57
2022/08/29 06:31:25;;;;;;;33.33;16.88;;;21.00;99.90;;;;;;5069714;28;20033;-57
2022/08/29 06:33:53;;;;;;;41.75;17.42;;;21.10;99.90;;;;;;5064297;28;20032;-57
2022/08/29 06:36:20;;;;;;;55.97;19.52;;;21.20;99.90;;;;;;5060901;28;20535;-57
2022/08/29 06:38:47;;;;;;;46.10;19.75;;;21.10;99.90;;;;;;5045753;28;20036;-57
2022/08/29 06:41:14;;;;;;;50.95;26.33;;;21.20;99.90;;;;;;5067496;28;20020;-57
2022/08/29 06:43:44;;;;;;;35.28;19.35;;;21.20;99.90;;;;;;5071569;28;20089;-57
2022/08/29 06:46:19;;;;;;;47.28;20.75;;;21.20;99.90;;;;;;5059143;28;20156;-57
2022/08/29 06:48:45;;;;;;;46.53;20.23;;;21.20;99.90;;;;;;5066182;28;20052;-57
2022/08/29 06:51:11;;;;;;;43.00;20.70;;;21.10;99.90;;;;;;5056592;28;20032;-57
2022/08/29 06:53:37;;;;;;;46.40;21.80;;;21.10;99.90;;;;;;5073690;28;20048;-57
2022/08/29 06:56:05;;;;;;;55.63;23.40;;;21.30;99.90;;;;;;5084056;28;20023;-57
2022/08/29 06:58:31;;;;;;;37.83;20.90;;;21.20;99.90;;;;;;5059775;28;20032;-57
2022/08/29 07:00:57;;;;;;;41.83;21.95;;;21.30;99.90;;;;;;5068204;28;20020;-57
2022/08/29 07:03:23;;;;;;;39.78;21.08;;;21.50;99.90;;;;;;5072326;28;20458;-57
2022/08/29 07:05:53;;;;;;;40.72;20.92;;;21.50;99.90;;;;;;5079771;28;20020;-57
2022/08/29 07:08:19;;;;;;;36.55;20.50;;;21.50;99.90;;;;;;5078220;28;20027;-58
2022/08/29 07:10:45;;;;;;;45.25;22.38;;;21.60;99.90;;;;;;5061434;28;20067;-58
2022/08/29 07:13:11;;;;;;;53.20;24.27;;;21.60;99.90;;;;;;5075185;28;20028;-57
2022/08/29 07:15:40;;;;;;;45.83;23.20;;;21.80;99.90;;;;;;5075720;28;20366;-58
2022/08/29 07:18:06;;;;;;;45.22;23.30;;;22.00;99.90;;;;;;5069624;28;20036;-58
2022/08/29 07:20:32;;;;;;;55.30;24.27;;;22.10;99.90;;;;;;5067148;28;20490;-57
2022/08/29 07:22:58;;;;;;;44.67;23.15;;;22.00;99.90;;;;;;5067763;28;20029;-57
2022/08/29 07:25:26;;;;;;;58.60;24.40;;;22.30;99.90;;;;;;5047953;28;20548;-57
2022/08/29 07:27:52;;;;;;;49.10;21.80;;;22.40;99.90;;;;;;5064477;28;20039;-57
2022/08/29 07:30:19;;;;;;;137.00;30.90;;;22.50;99.90;;;;;;5069334;28;20028;-58
2022/08/29 07:32:45;;;;;;;54.35;22.67;;;22.50;99.90;;;;;;5067783;28;20035;-57
2022/08/29 07:35:16;;;;;;;61.20;24.85;;;22.70;99.90;;;;;;5070422;28;20028;-58
2022/08/29 07:37:42;;;;;;;;;;;22.80;99.90;;;;;;5076051;28;20056;-58
2022/08/29 07:40:10;;;;;;;52.53;23.50;;;22.90;99.90;;;;;;5090141;28;20266;-58
2022/08/29 07:42:37;;;;;;;55.70;25.13;;;23.00;99.90;;;;;;5082617;28;20032;-57
2022/08/29 07:45:05;;;;;;;54.00;25.42;;;23.10;99.90;;;;;;5073260;28;20103;-58
2022/08/29 07:47:31;;;;;;;51.72;25.80;;;23.30;99.90;;;;;;5064326;28;20035;-58
2022/08/29 07:50:00;;;;;;;56.08;25.00;;;23.40;99.90;;;;;;5056556;28;20146;-57
2022/08/29 07:52:27;;;;;;;60.78;26.38;;;23.40;99.90;;;;;;5071674;28;20033;-58
2022/08/29 07:54:53;;;;;;;65.13;29.75;;;23.50;99.90;;;;;;5080358;28;20392;-58
2022/08/29 07:57:19;;;;;;;63.00;28.02;;;23.70;99.90;;;;;;5084246;28;20052;-57
2022/08/29 07:59:45;;;;;;;70.03;31.63;;;23.80;99.90;;;;;;5081178;28;20016;-58
2022/08/29 08:02:11;;;;;;;71.75;32.10;;;24.10;99.90;;;;;;5094464;28;20607;-58
2022/08/29 08:04:37;;;;;;;69.85;31.95;;;24.10;99.90;;;;;;5092045;28;20031;-58
2022/08/29 08:07:03;;;;;;;63.83;31.48;;;23.80;99.90;;;;;;5073259;28;20024;-58
2022/08/29 08:09:29;;;;;;;81.65;34.80;;;24.00;99.90;;;;;;5070635;28;20035;-58
2022/08/29 08:11:55;;;;;;;78.80;35.05;;;24.10;99.90;;;;;;5090359;28;20037;-58
2022/08/29 08:14:21;;;;;;;76.55;35.30;;;24.10;99.90;;;;;;5080933;28;20043;-58
2022/08/29 08:16:47;;;;;;;77.38;36.17;;;24.40;99.90;;;;;;5066391;28;20033;-58
2022/08/29 08:19:14;;;;;;;77.50;35.58;;;24.80;99.90;;;;;;5090693;28;20038;-58
2022/08/29 08:21:42;;;;;;;73.55;34.25;;;24.90;99.90;;;;;;5085075;28;20081;-58
2022/08/29 08:24:08;;;;;;;73.00;34.10;;;24.60;99.90;;;;;;5083355;28;20069;-58
2022/08/29 08:26:35;;;;;;;66.43;33.05;;;25.00;99.90;;;;;;5078274;28;20063;-57
2022/08/29 08:29:01;;;;;;;70.90;34.00;;;25.30;99.90;;;;;;5073644;28;20847;-58
2022/08/29 08:31:27;;;;;;;65.95;30.75;;;25.60;99.90;;;;;;5072804;28;20028;-57
2022/08/29 08:33:53;;;;;;;65.38;32.08;;;25.90;97.90;;;;;;5071103;28;20029;-58
2022/08/29 08:36:25;;;;;;;60.78;31.92;;;26.00;96.00;;;;;;5071314;28;20020;-58
2022/08/29 08:38:52;;;;;;;62.55;33.38;;;26.20;95.90;;;;;;5085522;28;20024;-58
2022/08/29 08:41:30;;;;;;;65.03;32.58;;;26.10;95.70;;;;;;5076037;28;20032;-58
2022/08/29 08:44:20;;;;;;;67.07;33.40;;;26.60;95.30;;;;;;5066707;28;20091;-58
2022/08/29 08:46:51;;;;;;;61.25;31.77;;;26.80;94.50;;;;;;5079863;28;20024;-58
2022/08/29 08:49:34;;;;;;;56.85;30.92;;;27.10;93.80;;;;;;5073443;28;20044;-58
2022/08/29 08:52:11;;;;;;;54.15;29.73;;;27.30;93.00;;;;;;5052714;28;20498;-58
2022/08/29 08:55:00;;;;;;;66.60;31.35;;;27.30;92.40;;;;;;5052477;28;20096;-58
2022/08/29 08:57:36;;;;;;;69.07;33.53;;;26.30;94.00;;;;;;5056971;28;20040;-58
2022/08/29 09:00:05;;;;;;;52.95;29.80;;;27.10;93.80;;;;;;5059813;28;20029;-58
2022/08/29 09:02:47;;;;;;;51.53;28.63;;;27.50;92.20;;;;;;5056756;28;20040;-59
2022/08/29 09:05:50;;;;;;;53.47;28.85;;;27.90;90.30;;;;;;5053336;28;20104;-58
2022/08/29 09:08:49;;;;;;;51.75;27.73;;;28.20;84.70;;;;;;5035115;28;20036;-58
2022/08/29 09:11:25;;;;;;;50.15;25.48;;;28.40;82.00;;;;;;5054831;28;20029;-58
2022/08/29 09:14:29;;;;;;;50.40;26.55;;;28.10;83.90;;;;;;5065342;28;20020;-58
2022/08/29 09:16:57;;;;;;;46.25;24.50;;;28.60;79.80;;;;;;5061477;28;20037;-58
2022/08/29 09:19:25;;;;;;;50.67;25.65;;;28.90;78.20;;;;;;5069164;28;20103;-58
2022/08/29 09:22:00;;;;;;;51.42;26.80;;;29.30;74.50;;;;;;5047835;28;20052;-58
2022/08/29 09:24:45;;;;;;;52.97;26.73;;;29.40;76.40;;;;;;5046309;28;20021;-58
2022/08/29 09:27:23;;;;;;;51.75;26.20;;;29.70;72.80;;;;;;5056577;28;20056;-58
2022/08/29 09:30:12;;;;;;;43.75;23.65;;;29.90;70.50;;;;;;5062222;28;20183;-58
2022/08/29 09:33:01;;;;;;;42.90;22.70;;;30.30;71.60;;;;;;5065211;28;20028;-58
2022/08/29 09:35:46;;;;;;;41.25;21.20;;;30.90;68.30;;;;;;5049175;28;20440;-58
2022/08/29 09:38:27;;;;;;;35.30;20.58;;;31.30;69.00;;;;;;5053952;28;20460;-59
2022/08/29 09:41:06;;;;;;;34.83;21.30;;;31.80;67.10;;;;;;5052510;28;20116;-58
2022/08/29 09:43:38;;;;;;;31.55;19.67;;;31.50;62.00;;;;;;5060856;28;20024;-59
2022/08/29 09:46:17;;;;;;;28.95;18.33;;;31.80;62.70;;;;;;5077708;28;20041;-59
2022/08/29 09:48:47;;;;;;;26.30;16.40;;;31.90;60.40;;;;;;5061448;28;20067;-59
2022/08/29 09:51:29;;;;;;;27.73;17.00;;;32.00;62.10;;;;;;5081315;28;20019;-59
2022/08/29 09:54:10;;;;;;;22.35;16.58;;;32.40;56.80;;;;;;5081752;28;20055;-59
2022/08/29 09:56:47;;;;;;;30.92;17.70;;;32.60;56.60;;;;;;5073352;28;20056;-59
2022/08/29 09:59:26;;;;;;;29.08;17.27;;;32.70;55.20;;;;;;5076846;28;20504;-59
2022/08/29 10:02:29;;;;;;;29.75;14.18;;;31.90;57.70;;;;;;5072867;28;20028;-59
2022/08/29 10:05:00;;;;;;;23.98;13.77;;;32.20;56.70;;;;;;5070107;28;20111;-59
2022/08/29 10:07:35;;;;;;;28.77;14.98;;;32.20;56.80;;;;;;5068863;28;20052;-59
2022/08/29 10:10:22;;;;;;;23.50;13.38;;;32.60;56.80;;;;;;5058614;28;20491;-59
2022/08/29 10:13:14;;;;;;;24.08;13.68;;;33.40;56.20;;;;;;5080260;28;20500;-59
2022/08/29 10:16:13;;;;;;;27.40;14.38;;;33.40;53.80;;;;;;5082764;28;20469;-59
2022/08/29 10:18:57;;;;;;;38.87;16.63;;;33.60;55.10;;;;;;5078592;28;20035;-59
2022/08/29 10:21:45;;;;;;;22.80;13.52;;;33.20;53.60;;;;;;5083124;28;20469;-59
2022/08/29 10:24:41;;;;;;;27.98;14.73;;;32.10;53.20;;;;;;5078132;28;20032;-59
2022/08/29 10:27:29;;;;;;;16.58;12.00;;;32.30;55.30;;;;;;5064600;28;20033;-59
2022/08/29 10:30:01;;;;;;;21.98;11.30;;;32.50;54.80;;;;;;5074364;28;20021;-59
2022/08/29 10:32:48;;;;;;;17.80;11.02;;;32.20;53.50;;;;;;5074490;28;20033;-59
2022/08/29 10:35:31;;;;;;;14.30;9.77;;;31.60;54.70;;;;;;5080317;28;20412;-59
2022/08/29 10:38:03;;;;;;;18.42;10.75;;;32.10;53.50;;;;;;5080918;28;20027;-59
2022/08/29 10:40:36;;;;;;;18.98;11.30;;;32.40;56.10;;;;;;5072374;28;20029;-59
2022/08/29 10:43:56;;;;;;;20.10;10.98;;;32.50;52.90;;;;;;5068981;28;20032;-59
2022/08/29 10:46:41;;;;;;;16.25;10.30;;;33.10;54.90;;;;;;5042982;28;20052;-59
2022/08/29 10:49:28;;;;;;;19.00;11.27;;;32.60;50.90;;;;;;5059275;28;20422;-59
2022/08/29 10:52:07;;;;;;;21.85;12.15;;;33.00;51.20;;;;;;5073126;28;20028;-59
2022/08/29 10:54:58;;;;;;;22.00;10.98;;;32.40;52.20;;;;;;5073105;28;20031;-59
2022/08/29 10:57:36;;;;;;;20.42;11.30;;;32.50;53.20;;;;;;5067278;28;20021;-59
2022/08/29 11:00:09;;;;;;;24.10;10.80;;;32.50;55.50;;;;;;5074335;28;20032;-59
2022/08/29 11:02:48;;;;;;;17.00;10.95;;;32.90;54.00;;;;;;5073898;28;20540;-59
2022/08/29 11:05:20;;;;;;;14.18;10.40;;;33.60;53.40;;;;;;5071752;28;20021;-59
2022/08/29 11:08:02;;;;;;;22.60;11.00;;;33.20;50.50;;;;;;5070131;28;20031;-59
2022/08/29 11:10:39;;;;;;;23.67;9.80;;;33.40;50.30;;;;;;5095178;28;20031;-59
2022/08/29 11:13:22;;;;;;;14.80;9.00;;;33.60;51.60;;;;;;5071869;28;20032;-59
2022/08/29 11:16:09;;;;;;;19.35;10.43;;;33.60;51.40;;;;;;5083675;28;20534;-59
2022/08/29 11:18:45;;;;;;;14.75;10.10;;;34.00;50.50;;;;;;5078694;28;20036;-59
2022/08/29 11:21:45;;;;;;;16.85;9.70;;;34.00;50.20;;;;;;5079210;28;20643;-59
2022/08/29 11:24:15;;;;;;;19.23;9.83;;;33.90;48.00;;;;;;5058746;28;20021;-59
2022/08/29 11:27:00;;;;;;;19.60;10.35;;;33.90;48.60;;;;;;5062023;28;20375;-59
2022/08/29 11:29:45;;;;;;;19.05;9.77;;;34.40;48.40;;;;;;5060466;28;20029;-59
2022/08/29 11:32:28;;;;;;;23.80;11.07;;;34.80;48.60;;;;;;5072594;28;20103;-59
2022/08/29 11:35:06;;;;;;;18.83;9.73;;;33.80;48.20;;;;;;5066439;28;20074;-59
2022/08/29 11:37:58;;;;;;;21.02;9.90;;;34.20;48.60;;;;;;5057135;28;20056;-59
2022/08/29 11:40:45;;;;;;;12.32;8.95;;;34.60;48.80;;;;;;5067385;28;20028;-59
2022/08/29 11:43:17;;;;;;;13.07;8.52;;;34.40;49.30;;;;;;5063088;28;20128;-59
2022/08/29 11:45:52;;;;;;;13.70;8.80;;;34.50;47.60;;;;;;5071682;28;20400;-59
2022/08/29 11:48:41;;;;;;;12.88;8.63;;;34.40;49.30;;;;;;5062945;28;20028;-59
2022/08/29 11:51:32;;;;;;;10.60;8.15;;;34.90;47.60;;;;;;5059835;28;20052;-59
2022/08/29 11:54:23;;;;;;;16.65;9.95;;;35.10;46.60;;;;;;5076742;28;20174;-59
2022/08/29 11:57:10;;;;;;;10.80;7.80;;;34.80;47.80;;;;;;5073012;28;20048;-59
2022/08/29 11:59:48;;;;;;;18.88;8.68;;;34.10;45.50;;;;;;5069540;28;20438;-59
2022/08/29 12:02:29;;;;;;;22.83;9.85;;;32.80;47.20;;;;;;5069867;28;20036;-59
2022/08/29 12:05:02;;;;;;;10.50;8.60;;;33.00;48.70;;;;;;5079105;28;20027;-59
2022/08/29 12:07:36;;;;;;;17.10;9.30;;;32.70;51.80;;;;;;5068430;28;20073;-59
2022/08/29 12:10:28;;;;;;;16.30;10.35;;;32.30;53.60;;;;;;5073382;28;20064;-59
2022/08/29 12:13:04;;;;;;;17.77;8.65;;;32.30;53.90;;;;;;5049337;28;20072;-59
2022/08/29 12:15:33;;;;;;;11.68;7.97;;;31.80;55.10;;;;;;5069433;28;20029;-59
2022/08/29 12:18:15;;;;;;;12.60;8.18;;;31.30;54.70;;;;;;5069515;28;20556;-59
2022/08/29 12:20:55;;;;;;;12.50;7.82;;;31.30;56.60;;;;;;5082371;28;20020;-59
2022/08/29 12:23:34;;;;;;;14.98;8.73;;;31.80;58.30;;;;;;5060221;28;20037;-59
2022/08/29 12:26:04;;;;;;;12.90;8.20;;;31.90;57.40;;;;;;5070890;28;20513;-59
2022/08/29 12:28:45;;;;;;;17.48;8.13;;;32.10;56.80;;;;;;5065994;28;20036;-59
2022/08/29 12:31:58;;;;;;;15.77;8.32;;;32.40;55.00;;;;;;5081132;28;20028;-60
2022/08/29 12:34:58;;;;;;;11.60;7.40;;;32.10;55.10;;;;;;5083250;28;20381;-60
2022/08/29 12:37:51;;;;;;;14.75;8.57;;;31.80;55.80;;;;;;5081587;28;20024;-60
2022/08/29 12:40:48;;;;;;;32.05;9.85;;;31.70;57.20;;;;;;5069174;28;20052;-60
2022/08/29 12:43:32;;;;;;;22.55;8.50;;;31.40;56.00;;;;;;5069506;28;20025;-60
2022/08/29 12:46:53;;;;;;;14.18;7.85;;;31.20;58.30;;;;;;5073445;28;20108;-60
2022/08/29 12:50:05;;;;;;;18.73;8.75;;;31.00;58.20;;;;;;4991274;28;20109;-60
2022/08/29 12:52:38;;;;;;;10.27;7.07;;;30.40;58.60;;;;;;5002016;28;20030;-60
2022/08/29 12:55:26;;;;;;;13.30;7.97;;;30.60;57.60;;;;;;4993130;28;20026;-60
2022/08/29 12:57:55;;;;;;;8.65;7.22;;;31.00;58.60;;;;;;4992685;28;20030;-60